Time;durP1;ratioP1;P1;durP2;ratioP2;P2;SDS_P1;SDS_P2;PMS_P1;PMS_P2;Temp;Humidity;BMP_temperature;BMP_pressure;BME280_temperature;BME280_humidity;BME280_pressure;Samples;Min_cycle;Max_cycle;Signal;HPM_P1;HPM_P2
2022/08/12 00:44:40;;;;;;;;;;;;;;;23.00;38.84;99736.50;4465761;32;34696;-81
2022/08/12 00:47:11;;;;;;;;;;;;;;;23.26;38.14;99723.41;4474797;32;35853;-81
2022/08/12 00:49:53;;;;;;;;;;;;;;;23.27;38.51;99725.94;4473056;32;33901;-78
2022/08/12 00:52:23;;;;;;;;;;;;;;;23.30;38.79;99731.03;4471492;31;34088;-79
2022/08/12 00:54:52;;;;;;;;;;;;;;;23.39;38.48;99730.44;4478407;32;33663;-82
2022/08/12 00:57:22;;;;;;;;;;;;;;;23.40;38.18;99729.47;4468978;31;33736;-80
2022/08/12 00:59:51;;;;;;;;;;;;;;;23.23;38.66;99728.91;4470067;32;32995;-79
2022/08/12 01:02:23;;;;;;;;;;;;;;;23.14;38.96;99730.34;4484002;31;33807;-78
2022/08/12 01:13:16;;;;;;;;;;;;;;;23.09;38.93;99737.72;4491511;31;33614;-81
2022/08/12 01:15:49;;;;;;;;;;;;;;;23.13;39.26;99732.13;4466751;31;34017;-80
2022/08/12 01:18:17;;;;;;;;;;;;;;;23.00;39.63;99731.22;4479344;31;35031;-78
2022/08/12 01:20:48;;;;;;;;;;;;;;;23.03;39.76;99736.31;4483639;31;33938;-80
2022/08/12 01:23:44;;;;;;;;;;;;;;;22.95;39.42;99731.50;4479541;31;34165;-82
2022/08/12 01:26:16;;;;;;;;;;;;;;;22.98;39.66;99730.47;4486661;31;33858;-81
2022/08/12 01:28:45;;;;;;;;;;;;;;;22.75;39.86;99734.53;4481450;31;33824;-79
2022/08/12 01:31:15;;;;;;;;;;;;;;;22.73;39.78;99733.78;4477434;31;32695;-80
2022/08/12 01:33:45;;;;;;;;;;;;;;;22.63;39.77;99727.37;4472557;32;34747;-79
2022/08/12 01:36:15;;;;;;;;;;;;;;;22.15;41.14;99736.38;4470944;32;34773;-81
2022/08/12 01:38:46;;;;;;;;;;;;;;;22.37;40.87;99729.84;4472235;32;34323;-81
2022/08/12 01:41:15;;;;;;;;;;;;;;;22.62;39.87;99730.97;4468163;31;33430;-79
2022/08/12 01:43:44;;;;;;;;;;;;;;;22.65;40.22;99723.69;4472056;32;34720;-80
2022/08/12 01:46:15;;;;;;;;;;;;;;;22.65;40.23;99720.22;4476162;31;33735;-80
2022/08/12 01:48:50;;;;;;;;;;;;;;;22.71;40.09;99722.44;4477035;31;33549;-79
2022/08/12 01:51:21;;;;;;;;;;;;;;;22.61;40.63;99716.88;4474752;32;33894;-81
2022/08/12 01:54:12;;;;;;;;;;;;;;;22.64;40.23;99711.44;4480345;32;34751;-79
2022/08/12 01:56:47;;;;;;;;;;;;;;;22.45;40.97;99713.53;4469580;32;35071;-81
2022/08/12 02:02:04;;;;;;;;;;;;;;;22.34;41.46;99706.25;4472556;32;33116;-79
2022/08/12 02:13:23;;;;;;;;;;;;;;;22.00;43.27;99715.34;4481422;32;33839;-78
2022/08/12 02:16:14;;;;;;;;;;;;;;;21.78;43.15;99707.84;4483567;32;34657;-78
2022/08/12 02:18:44;;;;;;;;;;;;;;;21.65;43.67;99703.31;4479725;32;34007;-79
2022/08/12 02:21:19;;;;;;;;;;;;;;;21.62;44.02;99699.97;4479063;32;33640;-80
2022/08/12 02:23:48;;;;;;;;;;;;;;;21.78;43.79;99695.50;4475572;32;33033;-80
2022/08/12 02:26:19;;;;;;;;;;;;;;;21.57;43.98;99697.59;4463314;32;35144;-79
2022/08/12 02:28:49;;;;;;;;;;;;;;;21.60;43.94;99689.53;4486385;31;33303;-78
2022/08/12 02:31:17;;;;;;;;;;;;;;;21.81;43.43;99691.81;4487493;31;33216;-80
2022/08/12 02:33:46;;;;;;;;;;;;;;;21.79;43.48;99691.06;4481209;31;32985;-81
2022/08/12 02:36:15;;;;;;;;;;;;;;;21.49;44.50;99689.28;4466600;32;34467;-79
2022/08/12 02:38:44;;;;;;;;;;;;;;;21.44;44.33;99691.34;4463464;32;34215;-80
2022/08/12 02:41:12;;;;;;;;;;;;;;;21.47;44.52;99691.16;4482566;31;34552;-80
2022/08/12 02:43:41;;;;;;;;;;;;;;;21.52;44.13;99691.75;4483684;31;33607;-78
2022/08/12 02:46:12;;;;;;;;;;;;;;;21.21;44.78;99685.56;4468832;32;33862;-81
2022/08/12 02:48:45;;;;;;;;;;;;;;;21.13;44.82;99679.03;4475970;32;34082;-81
2022/08/12 02:51:18;;;;;;;;;;;;;;;21.10;44.75;99678.28;4473157;32;34103;-79
2022/08/12 02:53:46;;;;;;;;;;;;;;;21.12;44.80;99678.19;4477185;32;33375;-80
2022/08/12 02:56:36;;;;;;;;;;;;;;;21.32;44.35;99679.69;4478501;32;34886;-79
2022/08/12 02:59:05;;;;;;;;;;;;;;;21.00;45.33;99676.25;4496146;31;34169;-79
2022/08/12 03:01:35;;;;;;;;;;;;;;;20.80;45.71;99680.87;4472865;31;33808;-78
2022/08/12 03:04:20;;;;;;;;;;;;;;;20.80;45.71;99678.22;4473966;31;33345;-79
2022/08/12 03:06:51;;;;;;;;;;;;;;;20.86;45.83;99677.03;4473016;32;33742;-79
2022/08/12 03:09:20;;;;;;;;;;;;;;;20.84;45.70;99663.91;4475249;31;34865;-81
2022/08/12 03:11:52;;;;;;;;;;;;;;;20.83;45.64;99670.12;4480416;31;34440;-81
2022/08/12 03:14:21;;;;;;;;;;;;;;;20.54;46.12;99671.72;4489723;31;33825;-79
2022/08/12 03:16:51;;;;;;;;;;;;;;;20.54;46.39;99673.47;4473325;32;33979;-79
2022/08/12 03:19:20;;;;;;;;;;;;;;;20.62;46.14;99671.31;4476817;31;34069;-79
2022/08/12 03:21:51;;;;;;;;;;;;;;;20.78;45.78;99668.69;4493122;31;33669;-81
2022/08/12 03:24:37;;;;;;;;;;;;;;;20.69;46.06;99667.41;4476623;32;32748;-79
2022/08/12 03:27:08;;;;;;;;;;;;;;;20.63;46.34;99678.28;4480535;31;33553;-80
2022/08/12 03:29:36;;;;;;;;;;;;;;;20.54;46.42;99671.72;4500856;31;35074;-81
2022/08/12 03:32:18;;;;;;;;;;;;;;;20.30;46.71;99679.16;4467221;32;33726;-81
2022/08/12 03:35:06;;;;;;;;;;;;;;;20.27;46.95;99681.94;4480673;32;33258;-81
2022/08/12 03:37:34;;;;;;;;;;;;;;;20.41;46.45;99675.94;4463389;32;33931;-81
2022/08/12 03:40:03;;;;;;;;;;;;;;;20.40;46.03;99677.72;4476055;32;33652;-81
2022/08/12 03:42:32;;;;;;;;;;;;;;;20.45;46.14;99680.13;4471743;32;34606;-78
2022/08/12 04:01:56;;;;;;;;;;;;;;;20.36;47.02;99686.72;4485182;31;33621;-78
2022/08/12 04:04:28;;;;;;;;;;;;;;;20.05;47.45;99687.50;4472086;31;33669;-81
2022/08/12 04:06:58;;;;;;;;;;;;;;;20.04;47.68;99686.66;4482297;31;33363;-79
2022/08/12 04:09:26;;;;;;;;;;;;;;;20.10;47.43;99695.16;4464490;31;853166;-79
2022/08/12 04:14:42;;;;;;;;;;;;;;;20.37;47.50;99691.06;4471641;32;34172;-79
2022/08/12 04:17:10;;;;;;;;;;;;;;;20.35;47.58;99697.38;4463863;32;33374;-81
2022/08/12 04:19:40;;;;;;;;;;;;;;;20.34;47.09;99696.50;4468614;32;33661;-79
2022/08/12 04:22:11;;;;;;;;;;;;;;;20.25;47.26;99697.84;4490886;31;34317;-81
2022/08/12 04:24:40;;;;;;;;;;;;;;;20.31;47.89;99704.56;4479813;31;34761;-79
2022/08/12 04:27:09;;;;;;;;;;;;;;;20.46;47.34;99697.63;4467105;31;33485;-79
2022/08/12 04:29:38;;;;;;;;;;;;;;;20.23;48.03;99702.34;4473959;32;33695;-79
2022/08/12 04:32:26;;;;;;;;;;;;;;;20.21;48.38;99704.19;4466111;32;34302;-79
2022/08/12 04:34:57;;;;;;;;;;;;;;;20.27;47.88;99708.28;4467854;32;33445;-81
2022/08/12 04:37:25;;;;;;;;;;;;;;;20.38;47.80;99718.28;4478015;31;33981;-79
2022/08/12 04:39:54;;;;;;;;;;;;;;;20.34;48.29;99716.72;4479364;31;34214;-80
2022/08/12 04:42:25;;;;;;;;;;;;;;;20.33;47.70;99712.41;4468356;31;34134;-78
2022/08/12 04:44:53;;;;;;;;;;;;;;;20.53;47.31;99712.16;4465396;32;32946;-80
2022/08/12 04:47:22;;;;;;;;;;;;;;;20.59;47.23;99717.16;4464187;32;33718;-79
2022/08/12 04:49:50;;;;;;;;;;;;;;;20.71;47.22;99718.28;4470782;32;33846;-78
2022/08/12 04:52:20;;;;;;;;;;;;;;;20.70;47.89;99721.81;4484039;31;33234;-80
2022/08/12 04:54:49;;;;;;;;;;;;;;;20.81;47.44;99726.53;4476296;31;33571;-79
2022/08/12 04:57:17;;;;;;;;;;;;;;;20.88;47.11;99731.38;4476304;31;34137;-79
2022/08/12 04:59:46;;;;;;;;;;;;;;;21.04;46.83;99728.72;4477705;32;33743;-79
2022/08/12 05:02:17;;;;;;;;;;;;;;;20.97;47.62;99731.78;4469240;31;33677;-81
2022/08/12 05:04:50;;;;;;;;;;;;;;;21.02;47.69;99735.03;4486628;31;34508;-80
2022/08/12 05:07:22;;;;;;;;;;;;;;;21.11;46.89;99734.50;4479885;31;33249;-80
2022/08/12 05:09:54;;;;;;;;;;;;;;;21.21;47.19;99743.59;4483969;31;33362;-78
2022/08/12 05:12:34;;;;;;;;;;;;;;;21.46;46.76;99732.56;4478000;32;34699;-81
2022/08/12 05:15:03;;;;;;;;;;;;;;;21.60;45.52;99736.16;4471005;32;33992;-79
2022/08/12 05:17:52;;;;;;;;;;;;;;;21.85;46.27;99735.59;4463490;32;34077;-79
2022/08/12 05:20:21;;;;;;;;;;;;;;;22.19;45.55;99745.00;4470155;32;34163;-80
2022/08/12 05:23:07;;;;;;;;;;;;;;;23.06;43.20;99744.06;4481181;32;34735;-79
2022/08/12 05:25:42;;;;;;;;;;;;;;;23.78;41.41;99736.72;4480969;31;33915;-80
2022/08/12 05:28:11;;;;;;;;;;;;;;;24.98;38.71;99738.16;4489092;31;32906;-80
2022/08/12 05:30:42;;;;;;;;;;;;;;;25.66;36.64;99736.69;4482514;31;34205;-80
2022/08/12 05:33:11;;;;;;;;;;;;;;;26.15;34.70;99738.31;4485661;31;34370;-82
2022/08/12 05:35:41;;;;;;;;;;;;;;;26.64;34.44;99738.97;4478873;31;33728;-81
2022/08/12 05:40:58;;;;;;;;;;;;;;;26.89;33.18;99737.84;4468327;31;34342;-80
2022/08/12 05:43:27;;;;;;;;;;;;;;;26.79;32.95;99729.75;4463597;32;33972;-80
2022/08/12 05:45:55;;;;;;;;;;;;;;;26.94;33.37;99733.87;4464268;32;33840;-80
2022/08/12 05:48:24;;;;;;;;;;;;;;;26.79;33.14;99735.94;4469256;31;32850;-81
2022/08/12 05:51:01;;;;;;;;;;;;;;;26.83;32.54;99728.56;4469692;31;35045;-79
2022/08/12 05:53:33;;;;;;;;;;;;;;;26.70;33.41;99735.81;4458096;31;34130;-82
2022/08/12 05:56:02;;;;;;;;;;;;;;;26.69;33.16;99740.31;4473586;31;33037;-80
2022/08/12 05:58:31;;;;;;;;;;;;;;;26.66;32.99;99739.72;4470060;32;32796;-81
2022/08/12 06:01:00;;;;;;;;;;;;;;;26.29;33.80;99735.44;4474692;32;33680;-81
2022/08/12 06:03:49;;;;;;;;;;;;;;;26.16;33.93;99737.34;4470601;32;33974;-81
2022/08/12 06:06:17;;;;;;;;;;;;;;;26.20;34.01;99738.81;4473618;31;34151;-80
2022/08/12 06:08:48;;;;;;;;;;;;;;;25.61;34.61;99730.88;4470851;32;33048;-82
2022/08/12 06:11:17;;;;;;;;;;;;;;;25.25;35.17;99733.53;4447952;32;34491;-79
2022/08/12 06:13:45;;;;;;;;;;;;;;;24.93;36.11;99735.81;4446813;32;34634;-80
2022/08/12 06:16:25;;;;;;;;;;;;;;;25.13;35.81;99737.91;4444826;32;34516;-82
2022/08/12 06:18:54;;;;;;;;;;;;;;;24.31;37.13;99736.66;4450600;32;33404;-82
2022/08/12 06:21:23;;;;;;;;;;;;;;;24.37;36.52;99738.03;4440349;32;34323;-81
2022/08/12 06:23:53;;;;;;;;;;;;;;;24.16;36.88;99733.28;4446127;32;34695;-81
2022/08/12 06:26:21;;;;;;;;;;;;;;;24.48;36.73;99739.00;4442021;32;33174;-82
2022/08/12 06:28:50;;;;;;;;;;;;;;;23.86;37.85;99733.53;4449114;32;32862;-80
2022/08/12 06:31:19;;;;;;;;;;;;;;;23.67;38.12;99743.66;4449388;32;34044;-81
2022/08/12 06:33:55;;;;;;;;;;;;;;;24.00;37.77;99743.22;4443691;32;35274;-82
2022/08/12 06:36:43;;;;;;;;;;;;;;;23.61;38.41;99739.63;4447796;32;34856;-81
2022/08/12 06:39:14;;;;;;;;;;;;;;;23.83;38.16;99739.91;4442650;32;32594;-82
2022/08/12 06:44:49;;;;;;;;;;;;;;;23.91;37.88;99741.19;4440899;32;34661;-81
2022/08/12 06:47:18;;;;;;;;;;;;;;;23.93;37.76;99745.44;4446976;32;33453;-82
2022/08/12 06:49:47;;;;;;;;;;;;;;;23.95;38.20;99737.38;4444997;32;32639;-83
2022/08/12 06:52:20;;;;;;;;;;;;;;;24.19;37.55;99750.75;4445025;32;34277;-80
2022/08/12 06:54:52;;;;;;;;;;;;;;;24.40;37.35;99738.62;4443490;32;34356;-80
2022/08/12 06:57:22;;;;;;;;;;;;;;;24.07;38.01;99741.84;4451563;32;33931;-80
2022/08/12 07:00:11;;;;;;;;;;;;;;;24.24;37.88;99741.53;4450815;32;33201;-80
2022/08/12 07:02:40;;;;;;;;;;;;;;;24.14;37.79;99736.94;4448217;32;33766;-80
2022/08/12 07:05:09;;;;;;;;;;;;;;;24.12;38.15;99738.88;4447685;32;34011;-80
2022/08/12 07:07:38;;;;;;;;;;;;;;;24.12;38.13;99745.03;4447496;32;34363;-80
2022/08/12 07:10:08;;;;;;;;;;;;;;;24.41;37.16;99748.31;4464564;32;33884;-82
2022/08/12 07:12:36;;;;;;;;;;;;;;;24.34;37.48;99746.19;4473382;32;33304;-81
2022/08/12 07:15:05;;;;;;;;;;;;;;;24.18;38.46;99738.44;4462710;32;34296;-80
2022/08/12 07:17:35;;;;;;;;;;;;;;;24.47;37.62;99744.41;4462747;32;35287;-81
2022/08/12 07:20:05;;;;;;;;;;;;;;;24.21;38.10;99744.41;4463004;32;32314;-80
2022/08/12 07:22:34;;;;;;;;;;;;;;;24.55;37.42;99747.38;4460861;32;36577;-81
2022/08/12 07:27:54;;;;;;;;;;;;;;;24.52;37.38;99744.91;4467381;32;33721;-80
2022/08/12 07:30:22;;;;;;;;;;;;;;;24.46;37.64;99748.03;4462696;32;33620;-80
2022/08/12 07:32:51;;;;;;;;;;;;;;;24.45;37.47;99746.28;4462310;32;34565;-82
2022/08/12 07:35:20;;;;;;;;;;;;;;;24.16;38.10;99749.16;4463125;32;34146;-81
2022/08/12 07:37:49;;;;;;;;;;;;;;;24.54;37.58;99758.09;4463066;32;34426;-80
2022/08/12 07:40:18;;;;;;;;;;;;;;;24.46;37.71;99755.97;4465795;32;34653;-80
2022/08/12 07:42:46;;;;;;;;;;;;;;;24.39;37.87;99757.31;4462596;32;35076;-80
2022/08/12 07:45:16;;;;;;;;;;;;;;;24.29;37.72;99751.81;4471726;32;34249;-82
2022/08/12 07:47:45;;;;;;;;;;;;;;;24.61;37.90;99751.41;4463135;32;33009;-81
2022/08/12 07:50:14;;;;;;;;;;;;;;;24.18;38.22;99752.53;4463080;32;32782;-80
2022/08/12 07:52:47;;;;;;;;;;;;;;;24.75;37.56;99747.78;4461095;32;34155;-80
2022/08/12 07:55:17;;;;;;;;;;;;;;;25.02;37.59;99751.09;4465849;32;34480;-82
2022/08/12 07:57:54;;;;;;;;;;;;;;;24.95;36.87;99749.00;4464147;32;32582;-80
2022/08/12 08:00:25;;;;;;;;;;;;;;;24.88;37.14;99738.81;4462749;32;32970;-80
2022/08/12 08:02:53;;;;;;;;;;;;;;;25.52;36.33;99738.59;4462442;32;34072;-80
2022/08/12 08:05:24;;;;;;;;;;;;;;;25.31;36.42;99742.84;4465766;32;33874;-79
2022/08/12 08:07:54;;;;;;;;;;;;;;;25.36;37.03;99729.22;4464407;32;34224;-81
2022/08/12 08:10:23;;;;;;;;;;;;;;;25.83;35.83;99741.63;4464946;32;33069;-80
2022/08/12 08:12:52;;;;;;;;;;;;;;;25.71;35.36;99746.03;4469570;32;33355;-81
2022/08/12 08:15:21;;;;;;;;;;;;;;;25.89;36.13;99741.16;4468425;32;33550;-81
2022/08/12 08:18:12;;;;;;;;;;;;;;;25.66;35.92;99736.69;4466774;32;34553;-80
2022/08/12 08:20:54;;;;;;;;;;;;;;;24.83;37.56;99740.94;4469188;32;32852;-80
2022/08/12 08:24:13;;;;;;;;;;;;;;;25.22;36.43;99741.69;4482386;32;33894;-81
2022/08/12 08:26:15;;;;;;;;;;;;;;;25.27;36.58;99736.94;4481390;32;34226;-80
2022/08/12 08:28:43;;;;;;;;;;;;;;;25.57;36.35;99737.41;4470844;32;34240;-81
2022/08/12 08:31:13;;;;;;;;;;;;;;;25.71;35.99;99740.72;4468857;32;31427;-80
2022/08/12 08:33:42;;;;;;;;;;;;;;;25.98;35.76;99742.28;4473752;32;34718;-81
2022/08/12 08:36:31;;;;;;;;;;;;;;;25.84;36.21;99734.47;4478246;32;35044;-80
2022/08/12 08:38:59;;;;;;;;;;;;;;;26.37;34.83;99738.34;4482590;32;34145;-80
2022/08/12 08:44:36;;;;;;;;;;;;;;;26.35;35.03;99734.94;4477736;32;36154;-81
2022/08/12 08:47:05;;;;;;;;;;;;;;;26.42;34.44;99732.66;4478084;32;35365;-82
2022/08/12 08:49:35;;;;;;;;;;;;;;;26.17;34.36;99739.06;4465299;32;34161;-81
2022/08/12 08:52:04;;;;;;;;;;;;;;;26.35;34.61;99742.94;4472432;32;32798;-81
2022/08/12 08:54:33;;;;;;;;;;;;;;;26.11;34.23;99731.53;4471936;32;33861;-81
2022/08/12 08:57:02;;;;;;;;;;;;;;;26.34;34.60;99743.91;4483983;32;34469;-80
2022/08/12 08:59:31;;;;;;;;;;;;;;;26.64;34.14;99734.50;4479585;32;33979;-80
2022/08/12 09:02:01;;;;;;;;;;;;;;;26.77;33.84;99727.25;4479606;32;33224;-82
2022/08/12 09:04:29;;;;;;;;;;;;;;;27.05;33.33;99727.66;4479353;32;33682;-80
2022/08/12 09:07:19;;;;;;;;;;;;;;;27.19;32.91;99722.09;4479671;32;34241;-80
2022/08/12 09:10:08;;;;;;;;;;;;;;;27.01;32.48;99720.88;4479872;32;34386;-82
2022/08/12 09:15:56;;;;;;;;;;;;;;;27.10;32.90;99727.28;4478119;32;34882;-81
2022/08/12 09:18:27;;;;;;;;;;;;;;;27.45;31.20;99716.44;4469075;32;34084;-80
2022/08/12 09:21:02;;;;;;;;;;;;;;;27.47;32.43;99710.97;4463594;32;34879;-80
2022/08/12 09:23:35;;;;;;;;;;;;;;;27.64;32.46;99713.94;4469949;32;34043;-80
2022/08/12 09:26:24;;;;;;;;;;;;;;;27.23;32.41;99712.03;4478447;32;34848;-81
2022/08/12 09:29:20;;;;;;;;;;;;;;;27.78;31.98;99714.56;4479398;32;34982;-81
2022/08/12 09:32:12;;;;;;;;;;;;;;;27.75;31.81;99717.50;4479182;32;34615;-80
2022/08/12 09:35:03;;;;;;;;;;;;;;;27.74;31.88;99706.00;4479092;32;34050;-81
2022/08/12 09:37:47;;;;;;;;;;;;;;;28.04;30.99;99705.22;4482803;32;35941;-80
2022/08/12 09:40:28;;;;;;;;;;;;;;;28.24;30.74;99700.00;4484074;32;34004;-82
2022/08/12 09:46:02;;;;;;;;;;;;;;;28.13;30.31;99700.94;4477111;32;32976;-81
2022/08/12 09:48:51;;;;;;;;;;;;;;;28.67;29.60;99696.25;4472027;32;33691;-81
2022/08/12 09:51:25;;;;;;;;;;;;;;;28.62;30.44;99693.16;4472156;32;34692;-80
2022/08/12 09:54:11;;;;;;;;;;;;;;;28.06;31.21;99692.59;4470740;32;34003;-83
2022/08/12 09:57:02;;;;;;;;;;;;;;;28.16;30.52;99692.66;4463123;32;34435;-80
2022/08/12 09:59:50;;;;;;;;;;;;;;;28.42;29.92;99692.22;4464736;32;33998;-81
2022/08/12 10:02:39;;;;;;;;;;;;;;;28.21;31.07;99700.25;4473268;32;34813;-80
2022/08/12 10:05:17;;;;;;;;;;;;;;;28.67;29.33;99690.91;4478180;32;33725;-80
2022/08/12 10:07:47;;;;;;;;;;;;;;;28.60;30.36;99692.44;4479347;32;33244;-81
2022/08/12 10:10:16;;;;;;;;;;;;;;;28.56;29.25;99680.34;4478924;32;33831;-81
2022/08/12 10:16:10;;;;;;;;;;;;;;;28.63;29.89;99682.34;4470451;32;33917;-81
2022/08/12 10:18:52;;;;;;;;;;;;;;;28.85;29.76;99673.25;4469398;32;34199;-82
2022/08/12 10:21:21;;;;;;;;;;;;;;;29.08;29.16;99670.38;4468817;32;34055;-81
2022/08/12 10:23:51;;;;;;;;;;;;;;;29.09;28.46;99675.56;4470710;32;34732;-82
2022/08/12 10:32:20;;;;;;;;;;;;;;;28.57;29.46;99666.88;4469193;32;34240;-81
2022/08/12 10:35:09;;;;;;;;;;;;;;;29.22;27.95;99659.25;4467787;32;34412;-81
2022/08/12 10:37:40;;;;;;;;;;;;;;;29.30;28.50;99666.56;4469581;32;34701;-82
2022/08/12 10:40:29;;;;;;;;;;;;;;;28.35;29.88;99665.22;4471027;32;33012;-81
2022/08/12 10:45:52;;;;;;;;;;;;;;;29.28;29.08;99668.53;4476315;32;33656;-80
2022/08/12 10:48:25;;;;;;;;;;;;;;;29.35;28.54;99662.47;4477364;31;33912;-82
2022/08/12 10:51:03;;;;;;;;;;;;;;;29.12;29.29;99656.59;4470869;31;33015;-82
2022/08/12 10:53:55;;;;;;;;;;;;;;;28.98;28.96;99654.31;4469873;31;34805;-82
2022/08/12 10:56:29;;;;;;;;;;;;;;;28.92;28.73;99641.50;4467987;32;33660;-80
2022/08/12 10:59:03;;;;;;;;;;;;;;;29.26;28.02;99649.13;4470468;32;34010;-81
2022/08/12 11:01:34;;;;;;;;;;;;;;;29.25;28.33;99636.75;4471808;32;33748;-80
2022/08/12 11:04:22;;;;;;;;;;;;;;;29.19;29.00;99640.84;4472711;32;35074;-80
2022/08/12 11:07:12;;;;;;;;;;;;;;;29.16;28.99;99637.59;4470677;32;33935;-82
2022/08/12 11:10:00;;;;;;;;;;;;;;;29.23;28.01;99650.25;4469955;32;33829;-81
2022/08/12 11:12:30;;;;;;;;;;;;;;;29.27;27.77;99638.31;4469997;32;32858;-83
2022/08/12 11:15:21;;;;;;;;;;;;;;;29.87;27.47;99640.78;4469611;32;34172;-82
2022/08/12 11:18:11;;;;;;;;;;;;;;;30.25;27.11;99638.94;4467212;32;33984;-82
2022/08/12 11:20:46;;;;;;;;;;;;;;;30.10;27.52;99635.87;4469598;32;33829;-82
2022/08/12 11:23:16;;;;;;;;;;;;;;;29.75;27.27;99625.88;4475514;32;31973;-80
2022/08/12 11:26:03;;;;;;;;;;;;;;;29.93;27.14;99629.47;4470173;32;33819;-81
2022/08/12 11:28:34;;;;;;;;;;;;;;;29.87;26.93;99627.41;4468142;32;33601;-81
2022/08/12 11:31:06;;;;;;;;;;;;;;;30.14;26.21;99631.94;4471394;32;34425;-80
2022/08/12 11:33:43;;;;;;;;;;;;;;;29.62;26.88;99628.00;4471011;32;33430;-81
2022/08/12 11:36:31;;;;;;;;;;;;;;;29.60;26.29;99627.28;4469806;32;34485;-81
2022/08/12 11:39:06;;;;;;;;;;;;;;;29.13;26.93;99620.87;4470330;32;34796;-81
2022/08/12 11:41:39;;;;;;;;;;;;;;;29.73;26.75;99634.03;4473843;32;33322;-82
2022/08/12 11:44:18;;;;;;;;;;;;;;;30.06;25.28;99626.50;4478409;32;33351;-80
2022/08/12 11:47:06;;;;;;;;;;;;;;;30.27;26.05;99633.47;4471137;32;33866;-81
2022/08/12 11:49:38;;;;;;;;;;;;;;;30.70;24.56;99631.94;4469488;32;33515;-82
2022/08/12 11:52:06;;;;;;;;;;;;;;;30.99;24.23;99616.53;4469568;32;33791;-82
2022/08/12 11:54:55;;;;;;;;;;;;;;;31.36;24.21;99622.69;4468048;32;33404;-82
2022/08/12 11:57:23;;;;;;;;;;;;;;;31.85;24.47;99620.41;4468834;32;34113;-82
2022/08/12 12:00:13;;;;;;;;;;;;;;;31.03;24.38;99611.72;4473242;32;33857;-82
2022/08/12 12:03:02;;;;;;;;;;;;;;;30.97;24.76;99613.16;4471393;32;34073;-83
2022/08/12 12:05:33;;;;;;;;;;;;;;;30.91;25.41;99621.81;4476646;32;33518;-81
2022/08/12 12:08:09;;;;;;;;;;;;;;;31.42;24.80;99617.59;4476945;32;33658;-81
2022/08/12 12:10:57;;;;;;;;;;;;;;;31.97;25.02;99612.91;4471756;32;35551;-81
2022/08/12 12:13:26;;;;;;;;;;;;;;;32.15;24.57;99619.06;4470910;32;34679;-81
2022/08/12 12:16:15;;;;;;;;;;;;;;;32.19;24.72;99617.75;4471773;32;33320;-82
2022/08/12 12:18:44;;;;;;;;;;;;;;;32.67;23.84;99608.19;4470157;32;34214;-82
2022/08/12 12:21:14;;;;;;;;;;;;;;;31.96;24.65;99620.13;4480640;32;34035;-82
2022/08/12 12:23:42;;;;;;;;;;;;;;;32.17;24.09;99617.06;4466000;32;33413;-81
2022/08/12 12:26:14;;;;;;;;;;;;;;;31.63;25.02;99608.34;4463212;32;32709;-81
2022/08/12 12:29:03;;;;;;;;;;;;;;;31.99;24.72;99608.25;4463364;32;35554;-81
2022/08/12 12:31:32;;;;;;;;;;;;;;;31.76;24.64;99598.03;4471563;32;35027;-80
2022/08/12 12:34:20;;;;;;;;;;;;;;;31.43;25.25;99605.03;4482916;32;33619;-81
2022/08/12 12:36:59;;;;;;;;;;;;;;;31.81;25.17;99601.09;4478790;32;33478;-83
2022/08/12 12:39:28;;;;;;;;;;;;;;;32.25;24.86;99598.28;4461203;32;34041;-82
2022/08/12 12:42:17;;;;;;;;;;;;;;;31.96;25.42;99598.69;4462822;32;33816;-82
2022/08/12 12:45:06;;;;;;;;;;;;;;;32.66;23.89;99592.22;4467006;32;34065;-83
2022/08/12 12:47:57;;;;;;;;;;;;;;;32.81;23.86;99584.34;4461047;32;33617;-83
2022/08/12 12:50:25;;;;;;;;;;;;;;;32.61;24.48;99583.84;4468176;32;33858;-81
2022/08/12 12:53:04;;;;;;;;;;;;;;;32.70;24.30;99580.16;4471542;31;35024;-82
2022/08/12 12:55:34;;;;;;;;;;;;;;;33.20;22.97;99575.66;4480630;31;35716;-83
2022/08/12 12:58:04;;;;;;;;;;;;;;;32.54;23.64;99569.38;4473319;31;32289;-82
2022/08/12 13:00:33;;;;;;;;;;;;;;;32.75;23.12;99571.59;4473870;32;34103;-82
2022/08/12 13:03:02;;;;;;;;;;;;;;;32.78;22.99;99558.66;4478284;31;35131;-81
2022/08/12 13:05:31;;;;;;;;;;;;;;;33.06;23.58;99559.22;4474155;31;33571;-81
2022/08/12 13:08:23;;;;;;;;;;;;;;;32.94;22.97;99558.69;4473128;32;31812;-81
2022/08/12 13:11:03;;;;;;;;;;;;;;;33.12;22.71;99563.06;4476673;31;33818;-81
2022/08/12 13:13:33;;;;;;;;;;;;;;;32.88;21.83;99556.66;4479146;31;34845;-78
2022/08/12 13:16:22;;;;;;;;;;;;;;;33.07;21.50;99555.50;4468845;31;33492;-78
2022/08/12 13:18:51;;;;;;;;;;;;;;;33.08;20.56;99559.03;4459980;31;31249;-79
2022/08/12 13:21:19;;;;;;;;;;;;;;;33.55;19.05;99552.94;4472982;31;34868;-78
2022/08/12 13:24:05;;;;;;;;;;;;;;;33.38;19.07;99552.13;4474155;31;35091;-78
2022/08/12 13:26:38;;;;;;;;;;;;;;;33.02;20.88;99555.16;4472696;31;33512;-79
2022/08/12 13:29:07;;;;;;;;;;;;;;;33.45;20.18;99552.28;4478663;31;32947;-79
2022/08/12 13:31:40;;;;;;;;;;;;;;;33.10;21.28;99546.25;4471211;32;33688;-78
2022/08/12 13:34:29;;;;;;;;;;;;;;;33.30;21.56;99546.78;4477862;31;33690;-79
2022/08/12 13:37:03;;;;;;;;;;;;;;;33.40;21.68;99541.22;4480074;31;33641;-80
2022/08/12 13:39:38;;;;;;;;;;;;;;;33.49;22.81;99550.91;4474626;31;33304;-78
2022/08/12 13:42:08;;;;;;;;;;;;;;;33.04;22.06;99544.28;4476713;32;34087;-79
2022/08/12 13:44:42;;;;;;;;;;;;;;;33.05;22.21;99541.41;4479626;32;34053;-79
2022/08/12 13:47:13;;;;;;;;;;;;;;;32.61;23.57;99546.22;4467736;32;34085;-80
2022/08/12 13:49:48;;;;;;;;;;;;;;;31.97;23.90;99545.84;4467158;32;33044;-79
2022/08/12 13:52:23;;;;;;;;;;;;;;;32.56;23.52;99543.22;4479252;32;34648;-78
2022/08/12 13:54:54;;;;;;;;;;;;;;;32.77;23.45;99538.19;4476107;32;34068;-79
2022/08/12 13:57:25;;;;;;;;;;;;;;;32.18;23.91;99543.56;4474102;32;34494;-77
2022/08/12 13:59:53;;;;;;;;;;;;;;;31.83;23.96;99533.88;4476219;32;34366;-78
2022/08/12 14:02:28;;;;;;;;;;;;;;;32.37;23.91;99528.19;4469854;32;34042;-78
2022/08/12 14:04:56;;;;;;;;;;;;;;;32.70;23.37;99538.00;4468598;32;34510;-80
2022/08/12 14:07:25;;;;;;;;;;;;;;;32.84;23.56;99533.00;4477885;32;34414;-79
2022/08/12 14:13:00;;;;;;;;;;;;;;;33.98;21.93;99524.72;4473673;32;34292;-79
2022/08/12 14:15:30;;;;;;;;;;;;;;;34.42;21.01;99518.78;4472699;32;34785;-78
2022/08/12 14:18:08;;;;;;;;;;;;;;;34.29;21.47;99521.22;4468761;32;33957;-78
2022/08/12 14:20:40;;;;;;;;;;;;;;;35.06;20.24;99520.31;4469424;32;34115;-80
2022/08/12 14:23:17;;;;;;;;;;;;;;;34.86;20.24;99513.75;4471292;32;34804;-79
2022/08/12 14:26:08;;;;;;;;;;;;;;;33.88;20.33;99521.41;4469307;32;36927;-79
2022/08/12 14:28:39;;;;;;;;;;;;;;;33.32;21.39;99518.69;4476574;32;34925;-80
2022/08/12 14:31:24;;;;;;;;;;;;;;;32.95;22.17;99513.84;4472531;32;33169;-80
2022/08/12 14:33:59;;;;;;;;;;;;;;;33.40;21.91;99507.09;4469844;32;35063;-78
2022/08/12 14:36:32;;;;;;;;;;;;;;;33.67;22.19;99499.63;4470531;32;34825;-79
2022/08/12 14:39:04;;;;;;;;;;;;;;;33.77;20.30;99497.56;4472280;32;32256;-78
2022/08/12 14:41:36;;;;;;;;;;;;;;;34.14;20.37;99493.38;4469298;32;33286;-78
2022/08/12 14:44:24;;;;;;;;;;;;;;;33.76;20.65;99495.91;4464756;32;34103;-79
2022/08/12 14:47:13;;;;;;;;;;;;;;;34.27;19.97;99504.41;4473923;32;33793;-78
2022/08/12 14:49:44;;;;;;;;;;;;;;;34.85;19.31;99483.28;4470687;32;34275;-78
2022/08/12 14:52:42;;;;;;;;;;;;;;;34.66;19.49;99486.50;4469419;32;32854;-79
2022/08/12 14:55:32;;;;;;;;;;;;;;;34.45;20.02;99482.56;4468931;32;34266;-78
2022/08/12 14:58:22;;;;;;;;;;;;;;;35.18;19.00;99475.75;4468970;32;35105;-78
2022/08/12 15:03:36;;;;;;;;;;;;;;;35.91;18.86;99470.53;4462687;32;34242;-79
2022/08/12 15:06:25;;;;;;;;;;;;;;;36.27;18.01;99470.53;4478309;32;32721;-78
2022/08/12 15:09:13;;;;;;;;;;;;;;;36.48;17.68;99458.88;4465934;32;33998;-80
2022/08/12 15:11:44;;;;;;;;;;;;;;;36.27;18.34;99459.72;4470410;32;33669;-80
2022/08/12 15:14:32;;;;;;;;;;;;;;;35.58;18.88;99457.41;4467581;32;33683;-79
2022/08/12 15:17:05;;;;;;;;;;;;;;;35.61;18.93;99448.97;4468610;32;33981;-78
2022/08/12 15:19:34;;;;;;;;;;;;;;;36.21;18.53;99452.37;4468544;32;34160;-79
2022/08/12 15:22:22;;;;;;;;;;;;;;;36.56;17.47;99454.34;4459910;32;34372;-80
2022/08/12 15:25:07;;;;;;;;;;;;;;;35.83;18.37;99460.66;4460199;32;34108;-76